sensor_id;sensor_type;location;lat;lon;timestamp;pressure;altitude;pressure_sealevel;temperature;humidity
43683;BME280;29285;52.128;21.060;2022-10-14T00:02:40;100770.97;;;9.35;61.07
43683;BME280;29285;52.128;21.060;2022-10-14T00:07:41;100774.86;;;9.35;61.14
43683;BME280;29285;52.128;21.060;2022-10-14T00:12:44;100764.47;;;9.38;61.20
43683;BME280;29285;52.128;21.060;2022-10-14T00:17:47;100759.70;;;9.38;61.26
43683;BME280;29285;52.128;21.060;2022-10-14T00:22:48;100756.26;;;9.31;61.27
43683;BME280;29285;52.128;21.060;2022-10-14T00:27:50;100755.44;;;9.20;61.23
43683;BME280;29285;52.128;21.060;2022-10-14T00:32:52;100756.31;;;9.16;61.27
43683;BME280;29285;52.128;21.060;2022-10-14T00:37:53;100746.84;;;9.10;61.32
43683;BME280;29285;52.128;21.060;2022-10-14T00:42:54;100752.91;;;9.04;61.34
43683;BME280;29285;52.128;21.060;2022-10-14T00:47:56;100741.64;;;9.10;61.47
43683;BME280;29285;52.128;21.060;2022-10-14T00:52:57;100742.48;;;9.10;61.57
43683;BME280;29285;52.128;21.060;2022-10-14T00:57:59;100738.17;;;9.06;61.62
43683;BME280;29285;52.128;21.060;2022-10-14T01:03:09;100737.30;;;9.13;61.71
43683;BME280;29285;52.128;21.060;2022-10-14T01:08:27;100727.33;;;9.13;61.79
43683;BME280;29285;52.128;21.060;2022-10-14T01:14:01;100720.42;;;9.10;61.82
43683;BME280;29285;52.128;21.060;2022-10-14T01:19:08;100732.55;;;9.08;61.84
43683;BME280;29285;52.128;21.060;2022-10-14T01:35:12;100717.88;;;8.98;62.02
43683;BME280;29285;52.128;21.060;2022-10-14T01:40:27;100712.30;;;8.87;61.99
43683;BME280;29285;52.128;21.060;2022-10-14T01:45:28;100708.84;;;8.82;62.03
43683;BME280;29285;52.128;21.060;2022-10-14T01:50:34;100718.34;;;8.80;62.12
43683;BME280;29285;52.128;21.060;2022-10-14T01:55:42;100703.62;;;8.87;62.26
43683;BME280;29285;52.128;21.060;2022-10-14T02:00:45;100694.99;;;8.80;62.31
43683;BME280;29285;52.128;21.060;2022-10-14T02:11:16;100691.13;;;8.74;62.34
43683;BME280;29285;52.128;21.060;2022-10-14T02:22:05;100693.74;;;8.68;62.44
43683;BME280;29285;52.128;21.060;2022-10-14T02:27:14;100689.83;;;8.74;62.55
43683;BME280;29285;52.128;21.060;2022-10-14T02:32:17;100683.77;;;8.75;62.68
43683;BME280;29285;52.128;21.060;2022-10-14T02:37:20;100680.30;;;8.79;62.73
43683;BME280;29285;52.128;21.060;2022-10-14T02:42:21;100675.98;;;8.78;62.79
43683;BME280;29285;52.128;21.060;2022-10-14T02:47:23;100675.11;;;8.79;62.85
43683;BME280;29285;52.128;21.060;2022-10-14T02:52:25;100678.55;;;8.84;62.92
43683;BME280;29285;52.128;21.060;2022-10-14T02:57:26;100667.30;;;8.84;62.97
43683;BME280;29285;52.128;21.060;2022-10-14T03:02:27;100658.23;;;8.79;62.96
43683;BME280;29285;52.128;21.060;2022-10-14T03:07:28;100661.26;;;8.80;63.00
43683;BME280;29285;52.128;21.060;2022-10-14T03:12:30;100663.00;;;8.73;63.01
43683;BME280;29285;52.128;21.060;2022-10-14T03:17:31;100663.45;;;8.73;63.04
43683;BME280;29285;52.128;21.060;2022-10-14T03:22:33;100659.56;;;8.71;63.10
43683;BME280;29285;52.128;21.060;2022-10-14T03:27:34;100660.89;;;8.67;63.15
43683;BME280;29285;52.128;21.060;2022-10-14T03:32:35;100655.70;;;8.64;63.19
43683;BME280;29285;52.128;21.060;2022-10-14T03:37:36;100650.91;;;8.71;63.32
43683;BME280;29285;52.128;21.060;2022-10-14T03:42:37;100648.73;;;8.73;63.44
43683;BME280;29285;52.128;21.060;2022-10-14T03:47:40;100650.51;;;8.67;63.43
43683;BME280;29285;52.128;21.060;2022-10-14T03:52:41;100647.05;;;8.68;63.48
43683;BME280;29285;52.128;21.060;2022-10-14T03:57:42;100653.08;;;8.70;63.58
43683;BME280;29285;52.128;21.060;2022-10-14T04:02:44;100642.73;;;8.67;63.58
43683;BME280;29285;52.128;21.060;2022-10-14T04:07:45;100637.98;;;8.60;63.62
43683;BME280;29285;52.128;21.060;2022-10-14T04:12:46;100641.00;;;8.63;63.65
43683;BME280;29285;52.128;21.060;2022-10-14T04:17:47;100640.13;;;8.64;63.76
43683;BME280;29285;52.128;21.060;2022-10-14T04:22:49;100636.69;;;8.58;63.78
43683;BME280;29285;52.128;21.060;2022-10-14T04:27:50;100621.55;;;8.63;63.87
43683;BME280;29285;52.128;21.060;2022-10-14T04:32:51;100615.91;;;8.63;63.97
43683;BME280;29285;52.128;21.060;2022-10-14T04:37:52;100611.17;;;8.64;64.02
43683;BME280;29285;52.128;21.060;2022-10-14T04:42:54;100609.00;;;8.62;64.07
43683;BME280;29285;52.128;21.060;2022-10-14T04:47:56;100591.28;;;8.55;64.09
43683;BME280;29285;52.128;21.060;2022-10-14T04:52:57;100599.07;;;8.55;64.13
43683;BME280;29285;52.128;21.060;2022-10-14T04:57:58;100596.48;;;8.57;64.22
43683;BME280;29285;52.128;21.060;2022-10-14T05:02:59;100598.20;;;8.58;64.30
43683;BME280;29285;52.128;21.060;2022-10-14T05:08:00;100594.30;;;8.58;64.34
43683;BME280;29285;52.128;21.060;2022-10-14T05:13:01;100595.59;;;8.58;64.40
43683;BME280;29285;52.128;21.060;2022-10-14T05:18:03;100594.73;;;8.60;64.45
43683;BME280;29285;52.128;21.060;2022-10-14T05:23:04;100599.49;;;8.59;64.50
43683;BME280;29285;52.128;21.060;2022-10-14T05:28:06;100591.70;;;8.59;64.55
43683;BME280;29285;52.128;21.060;2022-10-14T05:33:07;100588.70;;;8.62;64.60
43683;BME280;29285;52.128;21.060;2022-10-14T05:38:08;100575.72;;;8.62;64.69
43683;BME280;29285;52.128;21.060;2022-10-14T05:43:09;100582.18;;;8.65;64.74
43683;BME280;29285;52.128;21.060;2022-10-14T05:48:10;100585.16;;;8.75;64.83
43683;BME280;29285;52.128;21.060;2022-10-14T05:53:12;100582.56;;;8.77;64.90
43683;BME280;29285;52.128;21.060;2022-10-14T05:58:13;100587.75;;;8.80;64.96
43683;BME280;29285;52.128;21.060;2022-10-14T06:03:14;100588.98;;;8.91;65.05
43683;BME280;29285;52.128;21.060;2022-10-14T06:08:15;100590.23;;;9.03;65.19
43683;BME280;29285;52.128;21.060;2022-10-14T06:13:16;100594.03;;;9.16;65.31
43683;BME280;29285;52.128;21.060;2022-10-14T06:18:18;100592.69;;;9.25;65.40
43683;BME280;29285;52.128;21.060;2022-10-14T06:23:19;100589.16;;;9.32;65.45
43683;BME280;29285;52.128;21.060;2022-10-14T06:28:20;100593.45;;;9.39;65.46
43683;BME280;29285;52.128;21.060;2022-10-14T06:33:22;100592.52;;;9.50;65.56
43683;BME280;29285;52.128;21.060;2022-10-14T06:38:23;100596.81;;;9.56;65.61
43683;BME280;29285;52.128;21.060;2022-10-14T06:43:24;100600.20;;;9.64;65.65
43683;BME280;29285;52.128;21.060;2022-10-14T06:48:25;100606.67;;;9.69;65.70
43683;BME280;29285;52.128;21.060;2022-10-14T06:53:27;100609.28;;;9.65;65.68
43683;BME280;29285;52.128;21.060;2022-10-14T06:58:28;100613.53;;;9.76;65.71
43683;BME280;29285;52.128;21.060;2022-10-14T07:03:32;100619.53;;;9.86;65.84
43683;BME280;29285;52.128;21.060;2022-10-14T07:08:36;100624.66;;;9.93;65.91
43683;BME280;29285;52.128;21.060;2022-10-14T07:13:37;100622.64;;;9.73;65.84
43683;BME280;29285;52.128;21.060;2022-10-14T07:18:39;100620.48;;;9.74;65.79
43683;BME280;29285;52.128;21.060;2022-10-14T07:23:40;100616.41;;;9.92;66.00
43683;BME280;29285;52.128;21.060;2022-10-14T07:28:41;100613.66;;;10.10;66.17
43683;BME280;29285;52.128;21.060;2022-10-14T07:33:42;100608.69;;;10.31;66.37
43683;BME280;29285;52.128;21.060;2022-10-14T07:38:44;100606.77;;;10.50;66.50
43683;BME280;29285;52.128;21.060;2022-10-14T07:43:50;100603.59;;;10.62;66.54
43683;BME280;29285;52.128;21.060;2022-10-14T07:48:55;100602.08;;;10.80;66.53
43683;BME280;29285;52.128;21.060;2022-10-14T07:53:57;100592.82;;;10.93;66.56
43683;BME280;29285;52.128;21.060;2022-10-14T07:59:01;100598.73;;;11.04;66.52
43683;BME280;29285;52.128;21.060;2022-10-14T08:04:06;100597.23;;;11.18;66.57
43683;BME280;29285;52.128;21.060;2022-10-14T08:09:09;100607.42;;;11.34;66.57
43683;BME280;29285;52.128;21.060;2022-10-14T08:14:11;100607.56;;;11.54;66.61
43683;BME280;29285;52.128;21.060;2022-10-14T08:19:12;100598.66;;;11.69;66.65
43683;BME280;29285;52.128;21.060;2022-10-14T08:24:14;100605.91;;;11.75;66.63
43683;BME280;29285;52.128;21.060;2022-10-14T08:29:15;100597.55;;;11.82;66.54
43683;BME280;29285;52.128;21.060;2022-10-14T08:34:16;100589.91;;;11.97;66.53
43683;BME280;29285;52.128;21.060;2022-10-14T08:39:20;100590.98;;;12.11;66.57
43683;BME280;29285;52.128;21.060;2022-10-14T08:44:25;100595.89;;;12.28;66.59
43683;BME280;29285;52.128;21.060;2022-10-14T08:59:40;100584.16;;;12.71;66.51
43683;BME280;29285;52.128;21.060;2022-10-14T09:04:42;100577.09;;;12.76;66.44
43683;BME280;29285;52.128;21.060;2022-10-14T09:09:44;100586.20;;;12.78;66.29
43683;BME280;29285;52.128;21.060;2022-10-14T09:15:33;100590.34;;;12.88;66.26
43683;BME280;29285;52.128;21.060;2022-10-14T09:20:12;100585.03;;;12.93;66.15
43683;BME280;29285;52.128;21.060;2022-10-14T09:25:20;100585.97;;;13.10;66.13
43683;BME280;29285;52.128;21.060;2022-10-14T09:30:21;100577.71;;;13.27;66.10
43683;BME280;29285;52.128;21.060;2022-10-14T09:35:23;100578.22;;;13.43;66.01
43683;BME280;29285;52.128;21.060;2022-10-14T09:40:38;100571.70;;;13.61;65.94
43683;BME280;29285;52.128;21.060;2022-10-14T09:46:02;100571.15;;;13.83;65.91
43683;BME280;29285;52.128;21.060;2022-10-14T09:51:17;100572.92;;;13.99;65.84
43683;BME280;29285;52.128;21.060;2022-10-14T09:56:30;100573.55;;;14.09;65.60
43683;BME280;29285;52.128;21.060;2022-10-14T10:01:38;100574.99;;;14.36;65.63
43683;BME280;29285;52.128;21.060;2022-10-14T10:06:51;100569.50;;;14.46;65.53
43683;BME280;29285;52.128;21.060;2022-10-14T10:11:53;100568.81;;;14.54;65.35
43683;BME280;29285;52.128;21.060;2022-10-14T10:27:23;100549.94;;;14.73;64.95
43683;BME280;29285;52.128;21.060;2022-10-14T10:32:38;100558.11;;;14.78;64.90
43683;BME280;29285;52.128;21.060;2022-10-14T10:37:48;100541.77;;;14.85;64.82
43683;BME280;29285;52.128;21.060;2022-10-14T10:43:16;100547.88;;;14.84;64.70
43683;BME280;29285;52.128;21.060;2022-10-14T10:48:20;100543.66;;;14.80;64.49
43683;BME280;29285;52.128;21.060;2022-10-14T10:53:50;100540.13;;;14.81;64.44
43683;BME280;29285;52.128;21.060;2022-10-14T11:09:26;100521.97;;;15.57;64.59
43683;BME280;29285;52.128;21.060;2022-10-14T11:20:19;100513.50;;;16.01;64.32
43683;BME280;29285;52.128;21.060;2022-10-14T11:35:41;100507.72;;;16.86;63.92
43683;BME280;29285;52.128;21.060;2022-10-14T11:40:56;100501.17;;;16.96;63.53
43683;BME280;29285;52.128;21.060;2022-10-14T11:45:56;100494.84;;;17.24;63.42
43683;BME280;29285;52.128;21.060;2022-10-14T11:51:19;100487.13;;;17.40;63.11
43683;BME280;29285;52.128;21.060;2022-10-14T12:01:43;100477.61;;;17.79;62.77
43683;BME280;29285;52.128;21.060;2022-10-14T12:06:50;100471.50;;;17.98;62.56
43683;BME280;29285;52.128;21.060;2022-10-14T12:11:49;100466.75;;;18.17;62.36
43683;BME280;29285;52.128;21.060;2022-10-14T12:16:53;100468.64;;;18.43;62.27
43683;BME280;29285;52.128;21.060;2022-10-14T12:21:57;100460.39;;;18.59;62.09
43683;BME280;29285;52.128;21.060;2022-10-14T12:27:00;100464.55;;;18.46;61.62
43683;BME280;29285;52.128;21.060;2022-10-14T12:32:08;100459.97;;;18.41;61.36
43683;BME280;29285;52.128;21.060;2022-10-14T12:43:00;100458.95;;;17.54;60.52
43683;BME280;29285;52.128;21.060;2022-10-14T12:47:46;100458.52;;;17.12;60.26
43683;BME280;29285;52.128;21.060;2022-10-14T12:52:54;100454.01;;;16.93;60.29
43683;BME280;29285;52.128;21.060;2022-10-14T12:57:58;100450.97;;;17.02;60.52
43683;BME280;29285;52.128;21.060;2022-10-14T13:03:02;100452.55;;;17.29;60.87
43683;BME280;29285;52.128;21.060;2022-10-14T13:18:48;100452.69;;;17.67;60.94
43683;BME280;29285;52.128;21.060;2022-10-14T13:23:53;100447.50;;;17.35;60.60
43683;BME280;29285;52.128;21.060;2022-10-14T13:29:01;100443.55;;;17.14;60.54
43683;BME280;29285;52.128;21.060;2022-10-14T13:34:10;100444.72;;;16.94;60.53
43683;BME280;29285;52.128;21.060;2022-10-14T13:39:19;100444.79;;;16.83;60.63
43683;BME280;29285;52.128;21.060;2022-10-14T13:44:21;100441.76;;;16.92;60.82
43683;BME280;29285;52.128;21.060;2022-10-14T13:49:23;100442.75;;;17.32;61.11
43683;BME280;29285;52.128;21.060;2022-10-14T13:54:30;100434.85;;;18.79;61.82
43683;BME280;29285;52.128;21.060;2022-10-14T13:59:34;100435.89;;;19.03;61.32
43683;BME280;29285;52.128;21.060;2022-10-14T14:04:39;100434.53;;;18.68;60.47
43683;BME280;29285;52.128;21.060;2022-10-14T14:09:40;100437.56;;;17.92;59.71
43683;BME280;29285;52.128;21.060;2022-10-14T14:14:43;100441.85;;;17.44;59.49
43683;BME280;29285;52.128;21.060;2022-10-14T14:19:46;100441.04;;;17.11;59.57
43683;BME280;29285;52.128;21.060;2022-10-14T14:24:47;100438.33;;;16.79;59.67
43683;BME280;29285;52.128;21.060;2022-10-14T14:29:50;100432.75;;;16.54;59.78
43683;BME280;29285;52.128;21.060;2022-10-14T14:34:52;100429.81;;;16.28;59.88
43683;BME280;29285;52.128;21.060;2022-10-14T14:40:01;100426.60;;;16.09;59.99
43683;BME280;29285;52.128;21.060;2022-10-14T14:45:06;100424.47;;;15.95;60.18
43683;BME280;29285;52.128;21.060;2022-10-14T14:50:06;100421.89;;;15.82;60.33
43683;BME280;29285;52.128;21.060;2022-10-14T15:00:30;100421.41;;;15.58;60.60
43683;BME280;29285;52.128;21.060;2022-10-14T15:05:31;100421.88;;;15.44;60.67
43683;BME280;29285;52.128;21.060;2022-10-14T15:10:32;100429.27;;;15.33;60.79
43683;BME280;29285;52.128;21.060;2022-10-14T15:15:34;100428.62;;;15.26;60.97
43683;BME280;29285;52.128;21.060;2022-10-14T15:20:36;100423.59;;;15.20;61.15
43683;BME280;29285;52.128;21.060;2022-10-14T15:25:37;100421.54;;;15.16;61.31
43683;BME280;29285;52.128;21.060;2022-10-14T15:35:44;100418.70;;;15.09;61.59
43683;BME280;29285;52.128;21.060;2022-10-14T15:40:46;100413.98;;;15.07;61.73
43683;BME280;29285;52.128;21.060;2022-10-14T15:45:49;100413.72;;;15.01;61.79
43683;BME280;29285;52.128;21.060;2022-10-14T15:50:54;100409.66;;;15.06;61.96
43683;BME280;29285;52.128;21.060;2022-10-14T15:55:55;100413.86;;;15.10;62.14
43683;BME280;29285;52.128;21.060;2022-10-14T16:00:59;100412.06;;;15.12;62.23
43683;BME280;29285;52.128;21.060;2022-10-14T16:06:01;100408.17;;;15.11;62.27
43683;BME280;29285;52.128;21.060;2022-10-14T16:11:03;100405.60;;;15.09;62.30
43683;BME280;29285;52.128;21.060;2022-10-14T16:16:07;100405.11;;;15.11;62.39
43683;BME280;29285;52.128;21.060;2022-10-14T16:21:13;100417.79;;;15.10;62.47
43683;BME280;29285;52.128;21.060;2022-10-14T16:26:15;100418.61;;;15.12;62.54
43683;BME280;29285;52.128;21.060;2022-10-14T16:31:16;100414.68;;;15.12;62.67
43683;BME280;29285;52.128;21.060;2022-10-14T16:36:17;100412.55;;;15.10;62.73
43683;BME280;29285;52.128;21.060;2022-10-14T16:41:22;100414.77;;;15.09;62.83
43683;BME280;29285;52.128;21.060;2022-10-14T16:46:23;100419.87;;;15.14;63.00
43683;BME280;29285;52.128;21.060;2022-10-14T16:51:26;100418.56;;;15.14;63.09
43683;BME280;29285;52.128;21.060;2022-10-14T16:56:27;100420.10;;;15.19;63.22
43683;BME280;29285;52.128;21.060;2022-10-14T17:01:47;100422.68;;;15.21;63.41
43683;BME280;29285;52.128;21.060;2022-10-14T17:06:48;100425.42;;;15.18;63.43
43683;BME280;29285;52.128;21.060;2022-10-14T17:11:50;100426.73;;;15.04;63.32
43683;BME280;29285;52.128;21.060;2022-10-14T17:16:51;100425.63;;;14.98;63.36
43683;BME280;29285;52.128;21.060;2022-10-14T17:21:53;100428.30;;;14.97;63.48
43683;BME280;29285;52.128;21.060;2022-10-14T17:26:54;100426.47;;;14.99;63.63
43683;BME280;29285;52.128;21.060;2022-10-14T17:31:56;100424.37;;;14.97;63.75
43683;BME280;29285;52.128;21.060;2022-10-14T17:36:57;100426.08;;;14.98;63.88
43683;BME280;29285;52.128;21.060;2022-10-14T17:41:59;100418.56;;;15.00;64.03
43683;BME280;29285;52.128;21.060;2022-10-14T17:47:00;100419.56;;;14.96;64.16
43683;BME280;29285;52.128;21.060;2022-10-14T17:52:02;100422.05;;;14.87;64.13
43683;BME280;29285;52.128;21.060;2022-10-14T17:57:05;100413.87;;;14.83;64.17
43683;BME280;29285;52.128;21.060;2022-10-14T18:02:08;100409.41;;;14.72;64.18
43683;BME280;29285;52.128;21.060;2022-10-14T18:07:11;100408.80;;;14.63;64.20
43683;BME280;29285;52.128;21.060;2022-10-14T18:12:12;100416.85;;;14.57;64.27
43683;BME280;29285;52.128;21.060;2022-10-14T18:17:14;100410.30;;;14.57;64.40
43683;BME280;29285;52.128;21.060;2022-10-14T18:22:17;100409.00;;;14.57;64.65
43683;BME280;29285;52.128;21.060;2022-10-14T18:27:18;100405.98;;;14.56;64.77
43683;BME280;29285;52.128;21.060;2022-10-14T18:32:19;100409.75;;;14.61;64.87
43683;BME280;29285;52.128;21.060;2022-10-14T18:37:20;100397.36;;;14.66;65.05
43683;BME280;29285;52.128;21.060;2022-10-14T18:42:21;100401.94;;;14.59;65.08
43683;BME280;29285;52.128;21.060;2022-10-14T18:47:23;100404.16;;;14.58;65.10
43683;BME280;29285;52.128;21.060;2022-10-14T18:52:24;100404.75;;;14.53;65.15
43683;BME280;29285;52.128;21.060;2022-10-14T18:57:25;100404.05;;;14.48;65.15
43683;BME280;29285;52.128;21.060;2022-10-14T19:02:27;100402.14;;;14.53;65.34
43683;BME280;29285;52.128;21.060;2022-10-14T19:07:28;100406.46;;;14.54;65.40
43683;BME280;29285;52.128;21.060;2022-10-14T19:12:29;100404.20;;;14.56;65.54
43683;BME280;29285;52.128;21.060;2022-10-14T19:17:43;100400.78;;;14.54;65.62
43683;BME280;29285;52.128;21.060;2022-10-14T19:22:45;100403.02;;;14.38;65.47
43683;BME280;29285;52.128;21.060;2022-10-14T19:27:47;100401.70;;;14.25;65.36
43683;BME280;29285;52.128;21.060;2022-10-14T19:32:47;100401.97;;;14.15;65.43
43683;BME280;29285;52.128;21.060;2022-10-14T19:37:48;100392.64;;;14.07;65.53
43683;BME280;29285;52.128;21.060;2022-10-14T19:42:49;100385.90;;;13.98;65.60
43683;BME280;29285;52.128;21.060;2022-10-14T19:47:51;100384.42;;;13.89;65.65
43683;BME280;29285;52.128;21.060;2022-10-14T19:52:52;100381.45;;;13.86;65.77
43683;BME280;29285;52.128;21.060;2022-10-14T19:57:53;100380.13;;;13.86;65.91
43683;BME280;29285;52.128;21.060;2022-10-14T20:02:56;100387.58;;;13.85;66.05
43683;BME280;29285;52.128;21.060;2022-10-14T20:07:57;100382.94;;;13.80;66.10
43683;BME280;29285;52.128;21.060;2022-10-14T20:12:58;100373.31;;;13.81;66.17
43683;BME280;29285;52.128;21.060;2022-10-14T20:17:59;100378.91;;;13.83;66.38
43683;BME280;29285;52.128;21.060;2022-10-14T20:23:00;100384.09;;;13.85;66.49
43683;BME280;29285;52.128;21.060;2022-10-14T20:28:02;100378.43;;;13.85;66.56
43683;BME280;29285;52.128;21.060;2022-10-14T20:33:03;100384.56;;;13.84;66.62
43683;BME280;29285;52.128;21.060;2022-10-14T20:38:04;100382.03;;;13.81;66.65
43683;BME280;29285;52.128;21.060;2022-10-14T20:43:05;100380.86;;;13.76;66.70
43683;BME280;29285;52.128;21.060;2022-10-14T20:48:06;100375.02;;;13.67;66.68
43683;BME280;29285;52.128;21.060;2022-10-14T20:53:07;100371.79;;;13.58;66.69
43683;BME280;29285;52.128;21.060;2022-10-14T20:58:08;100369.32;;;13.52;66.73
43683;BME280;29285;52.128;21.060;2022-10-14T21:03:10;100363.77;;;13.48;66.76
43683;BME280;29285;52.128;21.060;2022-10-14T21:08:11;100368.95;;;13.33;66.76
43683;BME280;29285;52.128;21.060;2022-10-14T21:13:12;100370.45;;;13.25;66.75
43683;BME280;29285;52.128;21.060;2022-10-14T21:18:13;100361.95;;;13.17;66.83
43683;BME280;29285;52.128;21.060;2022-10-14T21:23:14;100360.89;;;13.07;66.90
43683;BME280;29285;52.128;21.060;2022-10-14T21:28:15;100357.27;;;12.96;66.94
43683;BME280;29285;52.128;21.060;2022-10-14T21:33:17;100360.08;;;12.89;66.99
43683;BME280;29285;52.128;21.060;2022-10-14T21:38:18;100354.17;;;12.80;67.08
43683;BME280;29285;52.128;21.060;2022-10-14T21:43:19;100352.13;;;12.75;67.15
43683;BME280;29285;52.128;21.060;2022-10-14T21:48:21;100351.35;;;12.71;67.29
43683;BME280;29285;52.128;21.060;2022-10-14T21:53:22;100341.10;;;12.64;67.38
43683;BME280;29285;52.128;21.060;2022-10-14T21:58:23;100341.32;;;12.54;67.46
43683;BME280;29285;52.128;21.060;2022-10-14T22:03:24;100335.51;;;12.43;67.47
43683;BME280;29285;52.128;21.060;2022-10-14T22:08:32;100332.33;;;12.30;67.52
43683;BME280;29285;52.128;21.060;2022-10-14T22:13:35;100333.67;;;12.28;67.65
43683;BME280;29285;52.128;21.060;2022-10-14T22:18:37;100325.06;;;12.25;67.78
43683;BME280;29285;52.128;21.060;2022-10-14T22:23:38;100320.80;;;12.21;67.88
43683;BME280;29285;52.128;21.060;2022-10-14T22:28:40;100320.57;;;12.12;67.92
43683;BME280;29285;52.128;21.060;2022-10-14T22:33:42;100319.12;;;11.97;67.93
43683;BME280;29285;52.128;21.060;2022-10-14T22:38:44;100321.31;;;11.96;68.07
43683;BME280;29285;52.128;21.060;2022-10-14T22:43:47;100324.17;;;11.83;68.13
43683;BME280;29285;52.128;21.060;2022-10-14T22:48:54;100320.16;;;11.68;68.13
43683;BME280;29285;52.128;21.060;2022-10-14T22:53:56;100314.59;;;11.64;68.25
43683;BME280;29285;52.128;21.060;2022-10-14T22:58:58;100317.03;;;11.72;68.46
43683;BME280;29285;52.128;21.060;2022-10-14T23:04:02;100312.39;;;11.65;68.55
43683;BME280;29285;52.128;21.060;2022-10-14T23:09:03;100315.33;;;11.71;68.71
43683;BME280;29285;52.128;21.060;2022-10-14T23:14:04;100322.20;;;11.75;68.85
43683;BME280;29285;52.128;21.060;2022-10-14T23:19:06;100312.31;;;11.70;68.92
43683;BME280;29285;52.128;21.060;2022-10-14T23:24:09;100314.52;;;11.69;68.95
43683;BME280;29285;52.128;21.060;2022-10-14T23:29:11;100313.23;;;11.67;69.04
43683;BME280;29285;52.128;21.060;2022-10-14T23:34:12;100318.15;;;11.60;69.09
43683;BME280;29285;52.128;21.060;2022-10-14T23:39:14;100322.73;;;11.48;69.03
43683;BME280;29285;52.128;21.060;2022-10-14T23:44:17;100320.53;;;11.49;69.11
43683;BME280;29285;52.128;21.060;2022-10-14T23:49:18;100324.03;;;11.48;69.21
43683;BME280;29285;52.128;21.060;2022-10-14T23:54:19;100320.97;;;11.50;69.30
43683;BME280;29285;52.128;21.060;2022-10-14T23:59:20;100307.05;;;11.51;69.38
